createdAt,value
2022-08-19T00:00:52.562Z,10.00
2022-08-19T00:03:56.515Z,8.67
2022-08-19T00:07:01.711Z,8.67
2022-08-19T00:10:10.800Z,9.33
2022-08-19T00:13:16.654Z,9.67
2022-08-19T00:16:25.352Z,10.67
2022-08-19T00:19:33.654Z,10.33
2022-08-19T00:22:38.019Z,10.00
2022-08-19T00:25:44.007Z,9.00
2022-08-19T00:28:53.547Z,10.00
2022-08-19T00:31:59.495Z,10.00
2022-08-19T00:35:03.418Z,11.00
2022-08-19T00:38:10.312Z,10.33
2022-08-19T00:41:23.337Z,10.67
2022-08-19T00:44:30.383Z,9.67
2022-08-19T00:47:35.390Z,8.00
2022-08-19T00:50:51.707Z,11.67
2022-08-19T00:53:57.948Z,9.00
2022-08-19T00:57:07.279Z,10.33
2022-08-19T01:00:15.742Z,10.67
2022-08-19T01:03:22.459Z,9.33
2022-08-19T01:06:26.691Z,8.33
2022-08-19T01:09:31.910Z,8.33
2022-08-19T01:12:38.443Z,10.67
2022-08-19T01:15:46.853Z,9.00
2022-08-19T01:18:52.168Z,9.33
2022-08-19T01:22:14.147Z,10.33
2022-08-19T01:25:29.092Z,9.67
2022-08-19T01:28:39.921Z,10.00
2022-08-19T01:31:45.336Z,9.33
2022-08-19T01:34:50.299Z,11.00
2022-08-19T01:38:00.380Z,10.00
2022-08-19T01:41:10.895Z,10.00
2022-08-19T01:44:19.371Z,10.00
2022-08-19T01:47:24.325Z,10.00
2022-08-19T01:50:28.695Z,11.67
2022-08-19T01:53:33.859Z,10.00
2022-08-19T01:56:42.044Z,10.00
2022-08-19T01:59:47.749Z,9.33
2022-08-19T02:02:52.838Z,11.00
2022-08-19T02:06:00.754Z,9.00
2022-08-19T02:09:07.335Z,10.67
2022-08-19T02:12:13.784Z,11.00
2022-08-19T02:15:20.113Z,10.67
2022-08-19T02:18:27.812Z,10.00
2022-08-19T02:21:32.611Z,9.33
2022-08-19T02:24:41.565Z,11.00
2022-08-19T02:27:47.298Z,9.33
2022-08-19T02:30:54.528Z,10.00
2022-08-19T02:33:59.183Z,10.00
2022-08-19T02:37:04.109Z,10.33
2022-08-19T02:40:12.546Z,11.00
2022-08-19T02:43:18.734Z,11.00
2022-08-19T02:46:25.777Z,11.00
2022-08-19T02:49:34.680Z,11.00
2022-08-19T02:52:40.091Z,10.67
2022-08-19T02:55:49.138Z,11.00
2022-08-19T02:58:56.090Z,11.00
2022-08-19T03:02:00.415Z,11.67
2022-08-19T03:05:06.704Z,10.67
2022-08-19T03:08:13.484Z,10.00
2022-08-19T03:11:19.267Z,11.00
2022-08-19T03:14:25.359Z,10.00
2022-08-19T03:17:29.318Z,11.00
2022-08-19T03:20:36.306Z,10.00
2022-08-19T03:23:40.654Z,11.00
2022-08-19T03:26:50.775Z,10.00
2022-08-19T03:29:57.853Z,11.33
2022-08-19T03:33:04.924Z,11.00
2022-08-19T03:36:11.868Z,13.00
2022-08-19T03:39:17.116Z,12.00
2022-08-19T03:42:38.424Z,12.00
2022-08-19T03:45:46.968Z,11.67
2022-08-19T03:48:55.255Z,12.00
2022-08-19T03:52:02.141Z,11.67
2022-08-19T03:55:06.655Z,12.33
2022-08-19T03:58:12.419Z,10.33
2022-08-19T04:01:21.277Z,11.33
2022-08-19T04:04:40.020Z,9.33
2022-08-19T04:07:44.792Z,11.00
2022-08-19T04:10:49.904Z,11.00
2022-08-19T04:13:55.806Z,11.00
2022-08-19T04:17:03.068Z,10.33
2022-08-19T04:20:07.323Z,12.33
2022-08-19T04:23:12.156Z,8.00
2022-08-19T04:26:21.187Z,10.00
2022-08-19T04:29:28.169Z,12.00
2022-08-19T04:32:33.972Z,11.00
2022-08-19T04:35:40.505Z,12.00
2022-08-19T04:38:46.978Z,12.00
2022-08-19T04:42:09.776Z,10.67
2022-08-19T04:45:18.005Z,11.67
2022-08-19T04:48:28.176Z,11.00
2022-08-19T04:51:32.749Z,11.33
2022-08-19T04:54:39.273Z,11.33
2022-08-19T04:57:43.624Z,10.00
2022-08-19T05:00:49.459Z,11.33
2022-08-19T05:03:55.093Z,13.00
2022-08-19T05:07:03.989Z,11.00
2022-08-19T05:10:08.675Z,11.00
2022-08-19T05:13:13.019Z,11.67
2022-08-19T05:16:21.978Z,14.00
2022-08-19T05:19:44.957Z,11.00
2022-08-19T05:22:51.483Z,7.00
2022-08-19T05:25:56.122Z,12.33
2022-08-19T05:29:00.432Z,31.00
2022-08-19T05:32:09.517Z,12.00
2022-08-19T05:35:16.886Z,13.67
2022-08-19T05:38:21.243Z,12.00
2022-08-19T05:41:31.663Z,6.00
2022-08-19T05:44:38.707Z,13.67
2022-08-19T05:47:45.515Z,14.00
2022-08-19T05:50:52.831Z,13.00
2022-08-19T05:53:56.616Z,12.00
2022-08-19T05:57:00.618Z,13.33
2022-08-19T06:00:09.712Z,14.67
2022-08-19T06:03:15.974Z,13.67
2022-08-19T06:06:21.950Z,12.33
2022-08-19T06:09:26.199Z,11.33
2022-08-19T06:12:32.924Z,11.67
2022-08-19T06:15:37.560Z,13.00
2022-08-19T06:18:41.294Z,12.33
2022-08-19T06:21:50.973Z,11.00
2022-08-19T06:24:55.151Z,12.33
2022-08-19T06:28:17.778Z,11.67
2022-08-19T06:31:24.897Z,11.67
2022-08-19T06:34:30.495Z,13.33
2022-08-19T06:37:36.308Z,14.67
2022-08-19T06:40:41.615Z,12.00
2022-08-19T06:43:46.676Z,12.00
2022-08-19T06:46:54.743Z,12.67
2022-08-19T06:50:05.422Z,12.67
2022-08-19T06:53:12.168Z,14.33
2022-08-19T06:56:17.559Z,13.67
2022-08-19T06:59:25.363Z,11.00
2022-08-19T07:02:30.618Z,14.00
2022-08-19T07:05:35.066Z,13.00
2022-08-19T07:08:44.589Z,13.33
2022-08-19T07:11:51.118Z,10.33
2022-08-19T07:14:55.179Z,12.00
2022-08-19T07:17:59.902Z,12.00
2022-08-19T07:21:09.470Z,11.00
2022-08-19T07:24:16.670Z,10.00
2022-08-19T07:27:24.298Z,11.33
2022-08-19T07:30:30.260Z,11.33
2022-08-19T07:33:38.128Z,10.67
2022-08-19T07:36:44.147Z,11.00
2022-08-19T07:39:50.298Z,11.00
2022-08-19T07:42:54.467Z,8.00
2022-08-19T07:45:59.651Z,7.00
2022-08-19T07:49:04.319Z,10.00
2022-08-19T07:52:12.690Z,10.00
2022-08-19T07:55:40.642Z,11.00
2022-08-19T07:58:47.831Z,9.00
2022-08-19T08:01:53.784Z,10.00
2022-08-19T08:05:15.725Z,10.00
2022-08-19T08:08:45.157Z,10.00
2022-08-19T08:11:56.517Z,11.00
2022-08-19T08:15:04.143Z,10.00
2022-08-19T08:18:17.372Z,10.00
2022-08-19T08:21:22.788Z,10.67
2022-08-19T08:24:29.096Z,11.00
2022-08-19T08:27:40.679Z,9.67
2022-08-19T08:30:48.537Z,10.67
2022-08-19T08:33:55.238Z,10.00
2022-08-19T08:36:59.154Z,9.33
2022-08-19T08:40:09.044Z,8.33
2022-08-19T08:43:27.765Z,10.00
2022-08-19T08:46:41.214Z,8.00
2022-08-19T08:49:54.300Z,9.67
2022-08-19T08:53:00.683Z,9.00
2022-08-19T08:56:06.915Z,9.00
2022-08-19T08:59:21.686Z,9.67
2022-08-19T09:02:25.793Z,10.00
2022-08-19T09:05:48.567Z,10.00
2022-08-19T09:09:04.181Z,10.67
2022-08-19T09:12:28.039Z,9.33
2022-08-19T09:15:41.322Z,9.00
2022-08-19T09:18:48.338Z,9.67
2022-08-19T09:21:52.861Z,8.67
2022-08-19T09:24:58.519Z,8.67
2022-08-19T09:28:05.705Z,7.00
2022-08-19T09:31:21.127Z,9.67
2022-08-19T09:34:26.050Z,8.00
2022-08-19T09:37:33.109Z,9.00
2022-08-19T09:40:38.581Z,8.33
2022-08-19T09:43:47.876Z,7.33
2022-08-19T09:46:54.132Z,6.67
2022-08-19T09:49:59.128Z,9.00
2022-08-19T09:53:03.331Z,9.33
2022-08-19T09:56:11.608Z,9.00
2022-08-19T09:59:15.327Z,8.67
2022-08-19T10:02:22.194Z,9.00
2022-08-19T10:05:44.407Z,9.00
2022-08-19T10:08:50.496Z,4.33
2022-08-19T10:11:55.213Z,8.00
2022-08-19T10:15:00.259Z,7.00
2022-08-19T10:18:08.054Z,8.33
2022-08-19T10:21:14.657Z,3.00
2022-08-19T10:24:19.917Z,8.67
2022-08-19T10:27:26.501Z,7.00
2022-08-19T10:30:31.350Z,7.67
2022-08-19T10:33:53.332Z,8.33
2022-08-19T10:37:00.902Z,8.00
2022-08-19T10:40:08.797Z,8.00
2022-08-19T10:43:13.338Z,8.00
2022-08-19T10:46:18.511Z,8.00
2022-08-19T10:49:25.347Z,8.67
2022-08-19T10:52:34.892Z,8.33
2022-08-19T10:56:00.514Z,9.00
2022-08-19T10:59:08.776Z,8.00
2022-08-19T11:02:14.687Z,8.67
2022-08-19T11:05:24.383Z,7.00
2022-08-19T11:08:28.728Z,8.00
2022-08-19T11:11:34.143Z,8.00
2022-08-19T11:14:43.244Z,9.67
2022-08-19T11:17:47.622Z,8.67
2022-08-19T11:20:53.231Z,8.33
2022-08-19T11:24:00.673Z,8.67
2022-08-19T11:27:07.131Z,8.00
2022-08-19T11:30:16.491Z,8.33
2022-08-19T11:33:20.637Z,8.67
2022-08-19T11:36:25.813Z,8.00
2022-08-19T11:39:31.862Z,9.00
2022-08-19T11:42:53.397Z,10.00
2022-08-19T11:45:58.102Z,8.00
2022-08-19T11:49:08.614Z,9.00
2022-08-19T11:52:16.687Z,10.00
2022-08-19T11:55:21.308Z,8.67
2022-08-19T11:58:28.329Z,9.00
2022-08-19T12:01:32.753Z,9.67
2022-08-19T12:04:37.192Z,6.67
2022-08-19T12:07:44.896Z,8.67
2022-08-19T12:10:49.099Z,10.00
2022-08-19T12:13:54.729Z,8.00
2022-08-19T12:16:58.763Z,9.00
2022-08-19T12:20:03.773Z,7.00
2022-08-19T12:23:11.455Z,7.33
2022-08-19T12:26:16.677Z,7.67
2022-08-19T12:29:23.611Z,8.00
2022-08-19T12:32:28.184Z,8.33
2022-08-19T12:35:33.481Z,9.00
2022-08-19T12:38:40.159Z,8.00
2022-08-19T12:41:51.537Z,8.00
2022-08-19T12:44:59.583Z,6.67
2022-08-19T12:48:33.876Z,7.00
2022-08-19T12:51:29.649Z,6.00
2022-08-19T12:54:35.056Z,7.00
2022-08-19T12:57:40.085Z,4.33
2022-08-19T13:00:44.005Z,5.67
2022-08-19T13:03:49.702Z,6.00
2022-08-19T13:06:54.656Z,7.00
2022-08-19T13:10:00.440Z,5.00
2022-08-19T13:13:08.040Z,6.00
2022-08-19T13:16:13.603Z,8.33
2022-08-19T13:19:17.431Z,10.00
2022-08-19T13:22:22.451Z,5.67
2022-08-19T13:25:27.953Z,7.00
2022-08-19T13:28:48.200Z,4.67
2022-08-19T13:32:09.785Z,5.67
2022-08-19T13:35:18.672Z,5.33
2022-08-19T13:38:23.842Z,5.00
2022-08-19T13:41:31.484Z,6.00
2022-08-19T13:44:35.367Z,5.00
2022-08-19T13:47:43.338Z,5.67
2022-08-19T13:50:50.610Z,5.33
2022-08-19T13:53:56.714Z,5.00
2022-08-19T13:57:02.204Z,5.00
2022-08-19T14:00:10.179Z,9.00
2022-08-19T14:03:14.132Z,6.00
2022-08-19T14:06:18.456Z,6.00
2022-08-19T14:09:22.131Z,5.67
2022-08-19T14:12:28.655Z,6.33
2022-08-19T14:15:33.268Z,5.67
2022-08-19T14:18:38.640Z,5.00
2022-08-19T14:21:42.566Z,6.00
2022-08-19T14:24:48.452Z,5.00
2022-08-19T14:27:54.751Z,7.00
2022-08-19T14:30:59.728Z,6.00
2022-08-19T14:34:03.648Z,7.67
2022-08-19T14:37:08.992Z,7.67
2022-08-19T14:40:21.704Z,7.00
2022-08-19T14:43:27.275Z,6.67
2022-08-19T14:46:31.848Z,8.00
2022-08-19T14:49:43.892Z,9.67
2022-08-19T14:52:52.837Z,10.00
2022-08-19T14:55:56.933Z,10.33
2022-08-19T14:59:02.590Z,9.67
2022-08-19T15:02:33.301Z,10.50
2022-08-19T15:05:30.893Z,11.33
2022-08-19T15:08:40.176Z,10.67
2022-08-19T15:11:50.796Z,13.00
2022-08-19T15:14:56.759Z,11.67
2022-08-19T15:18:03.577Z,13.33
2022-08-19T15:21:08.524Z,15.67
2022-08-19T15:24:12.652Z,13.33
2022-08-19T15:27:16.767Z,13.33
2022-08-19T15:30:24.857Z,12.33
2022-08-19T15:33:29.706Z,14.33
2022-08-19T15:36:36.292Z,13.00
2022-08-19T15:39:40.533Z,13.00
2022-08-19T15:42:45.268Z,11.33
2022-08-19T15:45:50.624Z,13.00
2022-08-19T15:48:59.661Z,12.33
2022-08-19T15:52:05.876Z,13.00
2022-08-19T15:55:10.139Z,13.00
2022-08-19T15:58:40.830Z,12.00
2022-08-19T16:02:03.264Z,13.67
2022-08-19T16:05:29.981Z,13.00
2022-08-19T16:08:33.691Z,10.33
2022-08-19T16:11:56.941Z,11.67
2022-08-19T16:15:03.708Z,13.00
2022-08-19T16:18:09.413Z,14.00
2022-08-19T16:21:14.746Z,12.00
2022-08-19T16:24:23.844Z,12.00
2022-08-19T16:27:30.900Z,12.67
2022-08-19T16:30:36.764Z,12.33
2022-08-19T16:33:43.416Z,12.00
2022-08-19T16:36:48.752Z,13.33
2022-08-19T16:39:53.245Z,11.67
2022-08-19T16:42:57.874Z,13.00
2022-08-19T16:46:02.677Z,11.67
2022-08-19T16:49:12.399Z,7.00
2022-08-19T16:52:16.506Z,11.00
2022-08-19T16:55:22.635Z,11.67
2022-08-19T16:58:29.717Z,11.67
2022-08-19T17:01:37.439Z,9.67
2022-08-19T17:04:43.384Z,11.33
2022-08-19T17:07:47.547Z,13.00
2022-08-19T17:11:17.037Z,12.67
2022-08-19T17:14:15.326Z,10.00
2022-08-19T17:17:19.360Z,10.00
2022-08-19T17:20:25.592Z,12.67
2022-08-19T17:23:42.485Z,12.00
2022-08-19T17:26:48.562Z,13.33
2022-08-19T17:29:53.204Z,14.00
2022-08-19T17:32:58.808Z,13.00
2022-08-19T17:36:07.051Z,14.00
2022-08-19T17:39:11.275Z,12.00
2022-08-19T17:42:15.170Z,11.00
2022-08-19T17:45:20.802Z,13.33
2022-08-19T17:48:25.435Z,12.33
2022-08-19T17:51:45.343Z,13.33
2022-08-19T17:54:49.145Z,13.33
2022-08-19T17:57:53.390Z,11.00
2022-08-19T18:00:59.784Z,12.00
2022-08-19T18:04:07.433Z,12.00
2022-08-19T18:07:12.638Z,12.00
2022-08-19T18:10:21.450Z,9.67
2022-08-19T18:13:25.072Z,10.00
2022-08-19T18:16:32.598Z,13.33
2022-08-19T18:19:42.743Z,13.00
2022-08-19T18:22:52.718Z,14.33
2022-08-19T18:25:56.369Z,11.33
2022-08-19T18:29:02.098Z,11.00
2022-08-19T18:32:13.067Z,11.00
2022-08-19T18:35:20.270Z,12.00
2022-08-19T18:38:42.930Z,12.00
2022-08-19T18:42:04.987Z,11.67
2022-08-19T18:45:27.184Z,11.67
2022-08-19T18:48:57.744Z,12.33
2022-08-19T18:52:03.328Z,12.67
2022-08-19T18:55:10.139Z,12.00
2022-08-19T18:58:14.222Z,10.67
2022-08-19T19:01:21.210Z,13.67
2022-08-19T19:04:28.157Z,11.00
2022-08-19T19:07:33.462Z,11.67
2022-08-19T19:10:38.794Z,12.00
2022-08-19T19:13:46.972Z,12.00
2022-08-19T19:16:52.109Z,14.00
2022-08-19T19:19:57.334Z,12.00
2022-08-19T19:23:01.401Z,15.00
2022-08-19T19:26:10.590Z,13.00
2022-08-19T19:29:15.441Z,13.00
2022-08-19T19:32:26.342Z,13.00
2022-08-19T19:35:32.720Z,12.67
2022-08-19T19:38:39.467Z,12.67
2022-08-19T19:41:45.342Z,12.00
2022-08-19T19:44:51.651Z,12.33
2022-08-19T19:47:57.061Z,11.00
2022-08-19T19:51:01.290Z,12.33
2022-08-19T19:54:06.214Z,11.33
2022-08-19T19:57:15.356Z,12.00
2022-08-19T20:00:19.738Z,10.33
2022-08-19T20:03:24.489Z,13.33
2022-08-19T20:06:29.269Z,10.33
2022-08-19T20:09:56.409Z,14.00
2022-08-19T20:12:57.195Z,11.67
2022-08-19T20:16:01.747Z,15.00
2022-08-19T20:19:07.240Z,14.00
2022-08-19T20:22:15.649Z,15.67
2022-08-19T20:25:24.744Z,13.00
2022-08-19T20:28:33.557Z,14.00
2022-08-19T20:31:37.938Z,12.67
2022-08-19T20:35:04.283Z,13.33
2022-08-19T20:38:09.045Z,13.67
2022-08-19T20:41:13.470Z,14.00
2022-08-19T20:44:18.824Z,14.00
2022-08-19T20:47:24.616Z,13.00
2022-08-19T20:50:30.159Z,12.00
2022-08-19T20:53:35.567Z,12.67
2022-08-19T20:56:39.316Z,13.00
2022-08-19T20:59:46.298Z,13.33
2022-08-19T21:02:50.654Z,13.00
2022-08-19T21:05:55.858Z,11.67
2022-08-19T21:08:59.480Z,12.00
2022-08-19T21:12:05.714Z,12.67
2022-08-19T21:15:12.237Z,10.00
2022-08-19T21:18:19.617Z,11.00
2022-08-19T21:21:25.829Z,10.00
2022-08-19T21:24:31.729Z,11.33
2022-08-19T21:27:35.567Z,11.33
2022-08-19T21:30:41.996Z,10.67
2022-08-19T21:33:46.464Z,12.33
2022-08-19T21:36:50.790Z,11.67
2022-08-19T21:39:55.211Z,11.33
2022-08-19T21:43:02.049Z,11.33
2022-08-19T21:46:09.205Z,11.00
2022-08-19T21:49:13.380Z,11.00
2022-08-19T21:52:23.741Z,11.33
2022-08-19T21:55:30.723Z,11.33
2022-08-19T21:58:36.545Z,11.33
2022-08-19T22:01:47.882Z,12.00
2022-08-19T22:04:54.898Z,11.33
2022-08-19T22:08:01.044Z,13.67
2022-08-19T22:11:05.668Z,13.67
2022-08-19T22:14:09.850Z,12.00
2022-08-19T22:17:15.903Z,11.00
2022-08-19T22:20:28.622Z,10.67
2022-08-19T22:23:32.307Z,13.33
2022-08-19T22:26:36.298Z,11.33
2022-08-19T22:29:40.203Z,11.33
2022-08-19T22:32:56.377Z,11.67
2022-08-19T22:36:00.825Z,12.67
2022-08-19T22:39:06.779Z,13.00
2022-08-19T22:42:11.670Z,13.00
2022-08-19T22:45:20.363Z,7.67
2022-08-19T22:48:32.762Z,12.33
2022-08-19T22:51:55.047Z,11.33
2022-08-19T22:55:05.084Z,6.00
2022-08-19T22:58:09.462Z,12.00
2022-08-19T23:01:27.640Z,12.33
2022-08-19T23:04:36.732Z,12.00
2022-08-19T23:07:40.565Z,13.00
2022-08-19T23:10:45.170Z,12.33
2022-08-19T23:13:48.982Z,15.00
2022-08-19T23:16:57.042Z,14.33
2022-08-19T23:20:09.556Z,13.33
2022-08-19T23:23:18.939Z,13.00
2022-08-19T23:26:24.598Z,11.33
2022-08-19T23:29:50.441Z,13.00
2022-08-19T23:32:55.485Z,11.00
2022-08-19T23:36:06.806Z,12.00
2022-08-19T23:39:11.019Z,13.00
2022-08-19T23:42:15.973Z,11.33
2022-08-19T23:45:23.706Z,12.67
2022-08-19T23:48:31.370Z,15.00
2022-08-19T23:51:39.086Z,12.33
2022-08-19T23:54:44.141Z,15.33
2022-08-19T23:57:52.533Z,13.33
